createdAt,value
2022-10-05T00:01:36.167Z,2.08
2022-10-05T00:05:33.199Z,2.10
2022-10-05T00:09:23.144Z,2.20
2022-10-05T00:13:13.373Z,2.00
2022-10-05T00:16:56.872Z,2.70
2022-10-05T00:20:41.470Z,2.13
2022-10-05T00:24:23.687Z,1.88
2022-10-05T00:28:22.934Z,1.95
2022-10-05T00:32:05.199Z,2.67
2022-10-05T00:35:47.218Z,2.00
2022-10-05T00:39:30.087Z,1.70
2022-10-05T00:43:20.713Z,1.92
2022-10-05T00:47:12.168Z,2.30
2022-10-05T00:51:18.461Z,2.35
2022-10-05T00:55:09.391Z,2.20
2022-10-05T00:59:40.117Z,1.88
2022-10-05T01:04:19.238Z,1.80
2022-10-05T01:08:37.323Z,2.00
2022-10-05T01:12:40.632Z,2.63
2022-10-05T01:16:47.611Z,2.10
2022-10-05T01:21:14.550Z,2.13
2022-10-05T01:25:19.423Z,2.35
2022-10-05T01:29:32.604Z,2.50
2022-10-05T01:33:20.581Z,2.33
2022-10-05T01:41:08.894Z,2.30
2022-10-05T01:45:14.656Z,2.38
2022-10-05T01:49:35.954Z,2.38
2022-10-05T01:53:48.303Z,2.30
2022-10-05T01:57:35.714Z,2.35
2022-10-05T02:01:32.417Z,2.78
2022-10-05T02:05:18.585Z,2.00
2022-10-05T02:09:17.304Z,2.25
2022-10-05T02:13:03.502Z,2.42
2022-10-05T02:16:50.382Z,2.33
2022-10-05T02:20:35.202Z,2.38
2022-10-05T02:24:32.475Z,2.25
2022-10-05T02:28:20.871Z,2.47
2022-10-05T02:32:15.731Z,2.58
2022-10-05T02:36:24.048Z,2.55
2022-10-05T02:40:41.626Z,2.33
2022-10-05T02:44:52.959Z,2.65
2022-10-05T02:48:52.686Z,2.25
2022-10-05T02:52:50.944Z,2.40
2022-10-05T02:56:44.824Z,2.45
2022-10-05T03:00:35.041Z,2.40
2022-10-05T03:04:26.307Z,2.45
2022-10-05T03:08:20.208Z,1.75
2022-10-05T03:12:25.275Z,2.70
2022-10-05T03:16:13.275Z,2.60
2022-10-05T03:24:15.168Z,2.53
2022-10-05T03:28:13.761Z,2.50
2022-10-05T03:32:07.713Z,2.58
2022-10-05T03:36:07.557Z,2.33
2022-10-05T03:40:03.169Z,2.25
2022-10-05T03:44:03.582Z,2.95
2022-10-05T03:48:30.196Z,2.97
2022-10-05T03:52:20.873Z,2.90
2022-10-05T03:56:23.386Z,2.80
2022-10-05T04:00:07.682Z,2.45
2022-10-05T04:04:04.271Z,2.60
2022-10-05T04:07:54.129Z,2.38
2022-10-05T04:11:43.479Z,2.78
2022-10-05T04:15:37.948Z,2.58
2022-10-05T04:19:24.753Z,2.75
2022-10-05T04:23:44.238Z,3.10
2022-10-05T04:27:41.913Z,2.67
2022-10-05T04:31:29.922Z,2.70
2022-10-05T04:35:53.182Z,3.17
2022-10-05T04:40:07.325Z,3.00
2022-10-05T04:44:04.326Z,2.45
2022-10-05T04:48:11.701Z,2.60
2022-10-05T04:52:24.643Z,2.47
2022-10-05T04:56:16.889Z,2.65
2022-10-05T05:00:22.530Z,2.70
2022-10-05T05:04:33.362Z,2.85
2022-10-05T05:08:29.441Z,2.85
2022-10-05T05:12:11.306Z,2.40
2022-10-05T05:16:07.589Z,2.75
2022-10-05T05:20:35.187Z,2.20
2022-10-05T05:24:22.946Z,2.70
2022-10-05T05:28:30.144Z,3.00
2022-10-05T05:32:15.121Z,3.25
2022-10-05T05:36:38.893Z,4.43
2022-10-05T05:40:59.405Z,3.13
2022-10-05T05:44:52.836Z,3.95
2022-10-05T05:48:40.857Z,5.03
2022-10-05T05:56:17.919Z,3.22
2022-10-05T06:00:00.617Z,2.90
2022-10-05T06:03:56.644Z,3.30
2022-10-05T06:07:39.925Z,3.60
2022-10-05T06:11:35.192Z,2.85
2022-10-05T06:15:25.902Z,3.15
2022-10-05T06:19:17.634Z,3.50
2022-10-05T06:23:04.188Z,3.38
2022-10-05T06:27:16.830Z,3.35
2022-10-05T06:31:26.701Z,3.20
2022-10-05T06:35:19.572Z,3.50
2022-10-05T06:39:32.314Z,3.63
2022-10-05T06:43:45.271Z,3.28
2022-10-05T06:47:27.122Z,3.70
2022-10-05T06:51:31.880Z,3.83
2022-10-05T06:55:18.160Z,2.60
2022-10-05T06:59:25.707Z,3.35
2022-10-05T07:03:25.749Z,3.67
2022-10-05T07:07:16.629Z,3.38
2022-10-05T07:11:23.501Z,3.30
2022-10-05T07:15:23.741Z,5.28
2022-10-05T07:19:24.425Z,3.53
2022-10-05T07:23:32.211Z,3.70
2022-10-05T07:27:22.958Z,3.60
2022-10-05T07:31:12.161Z,2.65
2022-10-05T07:35:35.306Z,3.85
2022-10-05T07:39:20.266Z,3.88
2022-10-05T07:43:20.015Z,3.58
2022-10-05T07:47:07.395Z,3.45
2022-10-05T07:50:57.922Z,3.53
2022-10-05T07:54:50.371Z,3.83
2022-10-05T07:58:45.160Z,3.33
2022-10-05T08:02:34.512Z,3.22
2022-10-05T08:06:49.016Z,3.45
2022-10-05T08:10:59.769Z,3.35
2022-10-05T08:14:53.819Z,4.00
2022-10-05T08:18:38.535Z,3.88
2022-10-05T08:22:29.374Z,3.63
2022-10-05T08:26:14.088Z,3.67
2022-10-05T08:30:01.466Z,4.03
2022-10-05T08:33:58.806Z,3.67
2022-10-05T08:37:43.113Z,3.38
2022-10-05T08:41:56.143Z,3.38
2022-10-05T08:46:08.566Z,3.17
2022-10-05T08:50:13.191Z,3.65
2022-10-05T08:54:25.842Z,3.92
2022-10-05T08:58:26.650Z,4.22
2022-10-05T09:02:23.399Z,3.28
2022-10-05T09:06:08.482Z,3.13
2022-10-05T09:10:05.657Z,3.78
2022-10-05T09:13:57.929Z,3.60
2022-10-05T09:18:21.478Z,3.67
2022-10-05T09:22:06.440Z,3.50
2022-10-05T09:26:09.337Z,3.53
2022-10-05T09:30:02.829Z,3.00
2022-10-05T09:34:01.753Z,2.92
2022-10-05T09:37:55.951Z,2.10
2022-10-05T09:41:56.178Z,2.00
2022-10-05T09:46:01.514Z,2.10
2022-10-05T09:49:58.472Z,1.60
2022-10-05T09:53:43.527Z,1.20
2022-10-05T09:57:40.216Z,1.30
2022-10-05T10:01:35.000Z,1.30
2022-10-05T10:05:32.654Z,1.00
2022-10-05T10:09:36.597Z,1.47
2022-10-05T10:13:45.740Z,1.58
2022-10-05T10:17:30.738Z,1.23
2022-10-05T10:21:30.899Z,1.00
2022-10-05T10:25:22.381Z,0.88
2022-10-05T10:29:23.391Z,0.68
2022-10-05T10:33:19.777Z,1.08
2022-10-05T10:37:31.824Z,0.90
2022-10-05T10:41:34.621Z,0.70
2022-10-05T10:45:25.448Z,0.95
2022-10-05T10:49:15.784Z,0.95
2022-10-05T10:53:11.203Z,0.90
2022-10-05T10:57:15.239Z,5.30
2022-10-05T11:01:22.203Z,1.60
2022-10-05T11:05:32.310Z,1.60
2022-10-05T11:09:27.772Z,1.83
2022-10-05T11:13:28.558Z,0.68
2022-10-05T11:17:15.570Z,0.80
2022-10-05T11:21:17.579Z,0.55
2022-10-05T11:25:02.542Z,0.68
2022-10-05T11:29:12.716Z,0.55
2022-10-05T11:33:38.890Z,1.10
2022-10-05T11:37:20.782Z,1.17
2022-10-05T11:41:35.125Z,1.02
2022-10-05T11:45:27.920Z,1.00
2022-10-05T11:49:48.137Z,0.82
2022-10-05T11:53:32.638Z,0.82
2022-10-05T11:57:32.953Z,1.10
2022-10-05T12:01:23.455Z,1.08
2022-10-05T12:05:32.664Z,1.27
2022-10-05T12:10:21.348Z,1.10
2022-10-05T12:14:33.531Z,1.40
2022-10-05T12:18:19.514Z,1.02
2022-10-05T12:22:15.573Z,1.00
2022-10-05T12:26:00.543Z,1.42
2022-10-05T12:29:49.211Z,0.93
2022-10-05T12:34:03.082Z,0.98
2022-10-05T12:38:20.599Z,1.00
2022-10-05T12:42:39.401Z,0.60
2022-10-05T12:46:39.780Z,1.05
2022-10-05T12:50:47.003Z,1.00
2022-10-05T12:54:47.085Z,1.08
2022-10-05T12:58:38.802Z,0.85
2022-10-05T13:02:39.144Z,1.00
2022-10-05T13:06:40.087Z,0.88
2022-10-05T13:10:46.784Z,0.85
2022-10-05T13:14:52.193Z,1.30
2022-10-05T13:18:49.972Z,0.90
2022-10-05T13:22:43.499Z,0.98
2022-10-05T13:26:33.547Z,1.38
2022-10-05T13:30:22.120Z,1.20
2022-10-05T13:34:24.735Z,1.30
2022-10-05T13:38:27.682Z,1.42
2022-10-05T13:42:11.266Z,1.35
2022-10-05T13:46:24.222Z,1.00
2022-10-05T13:50:26.589Z,1.30
2022-10-05T13:54:40.577Z,1.15
2022-10-05T13:58:44.935Z,1.13
2022-10-05T14:02:38.346Z,1.00
2022-10-05T14:06:30.094Z,1.10
2022-10-05T14:10:14.493Z,1.35
2022-10-05T14:14:14.217Z,1.30
2022-10-05T14:17:56.290Z,0.95
2022-10-05T14:21:58.809Z,1.17
2022-10-05T14:25:53.762Z,1.05
2022-10-05T14:29:38.253Z,0.98
2022-10-05T14:33:21.551Z,1.23
2022-10-05T14:37:20.616Z,1.20
2022-10-05T14:41:19.819Z,1.02
2022-10-05T14:45:17.846Z,1.50
2022-10-05T14:49:30.229Z,1.20
2022-10-05T14:53:12.165Z,1.40
2022-10-05T14:57:00.103Z,1.45
2022-10-05T15:00:55.399Z,1.48
2022-10-05T15:04:44.849Z,1.52
2022-10-05T15:09:09.134Z,1.25
2022-10-05T15:13:16.130Z,1.45
2022-10-05T15:17:12.722Z,1.60
2022-10-05T15:21:00.597Z,1.50
2022-10-05T15:24:51.778Z,1.77
2022-10-05T15:28:42.337Z,1.73
2022-10-05T15:32:42.316Z,1.83
2022-10-05T15:36:35.761Z,2.00
2022-10-05T15:40:28.091Z,2.20
2022-10-05T15:44:24.257Z,2.30
2022-10-05T15:48:06.299Z,1.90
2022-10-05T15:52:06.041Z,2.45
2022-10-05T15:55:51.269Z,2.35
2022-10-05T15:59:38.674Z,2.63
2022-10-05T16:03:26.491Z,1.92
2022-10-05T16:07:37.519Z,2.03
2022-10-05T16:11:41.380Z,2.40
2022-10-05T16:15:46.458Z,2.20
2022-10-05T16:19:35.262Z,2.15
2022-10-05T16:23:29.871Z,3.10
2022-10-05T16:27:57.343Z,2.97
2022-10-05T16:31:47.193Z,3.13
2022-10-05T16:35:56.910Z,2.22
2022-10-05T16:40:02.818Z,2.38
2022-10-05T16:44:00.608Z,2.85
2022-10-05T16:47:48.652Z,2.33
2022-10-05T16:51:52.282Z,2.58
2022-10-05T16:55:42.115Z,2.10
2022-10-05T16:59:48.554Z,2.72
2022-10-05T17:04:06.952Z,2.75
2022-10-05T17:08:27.858Z,2.87
2022-10-05T17:12:34.576Z,2.75
2022-10-05T17:16:50.450Z,3.40
2022-10-05T17:20:42.964Z,3.58
2022-10-05T17:24:27.832Z,3.30
2022-10-05T17:28:18.296Z,3.15
2022-10-05T17:32:06.334Z,3.35
2022-10-05T17:39:56.645Z,3.45
2022-10-05T17:43:38.686Z,3.55
2022-10-05T17:47:59.377Z,3.10
2022-10-05T17:51:59.915Z,4.10
2022-10-05T17:55:46.258Z,3.42
2022-10-05T17:59:46.475Z,3.60
2022-10-05T18:03:51.844Z,2.70
2022-10-05T18:07:38.609Z,3.10
2022-10-05T18:11:38.277Z,3.50
2022-10-05T18:15:26.206Z,3.63
2022-10-05T18:19:16.789Z,3.20
2022-10-05T18:23:07.273Z,3.65
2022-10-05T18:27:31.999Z,3.25
2022-10-05T18:31:51.424Z,3.50
2022-10-05T18:35:42.980Z,3.40
2022-10-05T18:39:45.802Z,2.95
2022-10-05T18:43:30.784Z,2.88
2022-10-05T18:47:18.150Z,3.63
2022-10-05T18:51:12.734Z,4.10
2022-10-05T18:54:55.028Z,4.13
2022-10-05T18:58:52.064Z,3.50
2022-10-05T19:02:48.236Z,3.80
2022-10-05T19:06:34.714Z,3.42
2022-10-05T19:10:51.858Z,3.55
2022-10-05T19:14:47.447Z,3.25
2022-10-05T19:18:29.751Z,3.08
2022-10-05T19:22:42.792Z,3.10
2022-10-05T19:26:54.901Z,3.95
2022-10-05T19:31:17.987Z,3.28
2022-10-05T19:35:11.510Z,3.13
2022-10-05T19:39:21.360Z,3.38
2022-10-05T19:43:37.982Z,3.53
2022-10-05T19:47:44.443Z,3.38
2022-10-05T19:51:31.820Z,2.95
2022-10-05T19:55:15.644Z,3.22
2022-10-05T19:58:59.385Z,3.75
2022-10-05T20:02:42.197Z,3.70
2022-10-05T20:06:26.808Z,3.30
2022-10-05T20:10:30.775Z,3.70
2022-10-05T20:14:13.874Z,3.05
2022-10-05T20:18:14.469Z,3.28
2022-10-05T20:21:59.218Z,3.25
2022-10-05T20:25:41.578Z,2.95
2022-10-05T20:29:23.533Z,3.20
2022-10-05T20:33:10.532Z,3.25
2022-10-05T20:36:52.479Z,2.80
2022-10-05T20:40:35.142Z,3.25
2022-10-05T20:44:17.078Z,3.42
2022-10-05T20:47:59.132Z,3.08
2022-10-05T20:51:41.058Z,3.67
2022-10-05T20:55:22.968Z,3.58
2022-10-05T20:59:04.858Z,3.38
2022-10-05T21:02:47.004Z,3.95
2022-10-05T21:06:29.504Z,3.35
2022-10-05T21:10:12.072Z,3.40
2022-10-05T21:13:54.628Z,4.07
2022-10-05T21:17:38.102Z,3.67
2022-10-05T21:21:20.190Z,4.15
2022-10-05T21:25:02.562Z,3.40
2022-10-05T21:28:44.500Z,4.30
2022-10-05T21:32:26.517Z,3.85
2022-10-05T21:36:08.458Z,3.47
2022-10-05T21:39:50.427Z,3.28
2022-10-05T21:43:32.321Z,3.67
2022-10-05T21:47:14.237Z,3.53
2022-10-05T21:50:56.243Z,3.38
2022-10-05T21:54:38.261Z,3.90
2022-10-05T21:58:22.546Z,3.08
2022-10-05T22:02:04.522Z,3.03
2022-10-05T22:05:46.601Z,3.88
2022-10-05T22:09:28.665Z,3.63
2022-10-05T22:13:10.693Z,3.45
2022-10-05T22:16:53.413Z,3.60
2022-10-05T22:20:35.776Z,4.00
2022-10-05T22:24:17.806Z,3.58
2022-10-05T22:28:02.983Z,3.28
2022-10-05T22:31:48.750Z,3.47
2022-10-05T22:35:37.078Z,3.45
2022-10-05T22:43:01.019Z,3.97
2022-10-05T22:46:43.189Z,3.90
2022-10-05T22:50:25.150Z,3.20
2022-10-05T22:54:07.165Z,3.20
2022-10-05T22:57:49.404Z,3.65
2022-10-05T23:01:31.398Z,3.40
2022-10-05T23:05:14.661Z,3.70
2022-10-05T23:08:56.968Z,2.83
2022-10-05T23:12:39.139Z,2.67
2022-10-05T23:16:23.697Z,3.22
2022-10-05T23:20:08.600Z,2.85
2022-10-05T23:23:53.561Z,4.00
2022-10-05T23:27:40.094Z,3.13
2022-10-05T23:31:25.447Z,3.28
2022-10-05T23:35:08.877Z,2.80
2022-10-05T23:38:51.380Z,2.55
2022-10-05T23:42:33.351Z,3.20
2022-10-05T23:46:16.158Z,3.15
2022-10-05T23:49:58.156Z,2.67
2022-10-05T23:53:40.081Z,3.00
2022-10-05T23:57:22.005Z,2.92
